createdAt,value
2019-06-20T00:02:26.411Z,15.12
2019-06-20T00:04:56.228Z,15.12
2019-06-20T00:07:26.233Z,15.07
2019-06-20T00:09:55.973Z,15.12
2019-06-20T00:12:25.727Z,14.98
2019-06-20T00:14:55.525Z,14.85
2019-06-20T00:17:25.357Z,14.80
2019-06-20T00:19:55.245Z,14.77
2019-06-20T00:22:25.040Z,14.72
2019-06-20T00:24:54.930Z,14.79
2019-06-20T00:27:24.671Z,14.85
2019-06-20T00:29:54.397Z,14.83
2019-06-20T00:32:24.130Z,14.93
2019-06-20T00:34:53.905Z,14.83
2019-06-20T00:37:23.721Z,14.68
2019-06-20T00:39:53.471Z,14.72
2019-06-20T00:42:24.081Z,14.68
2019-06-20T00:44:53.809Z,14.60
2019-06-20T00:47:24.353Z,14.64
2019-06-20T00:49:54.158Z,14.65
2019-06-20T00:52:24.253Z,14.67
2019-06-20T00:54:54.236Z,14.54
2019-06-20T00:57:24.124Z,14.55
2019-06-20T00:59:53.884Z,14.56
2019-06-20T01:02:23.813Z,14.61
2019-06-20T01:04:53.604Z,14.67
2019-06-20T01:07:23.919Z,14.64
2019-06-20T01:09:53.712Z,14.61
2019-06-20T01:12:23.507Z,14.55
2019-06-20T01:14:53.290Z,14.58
2019-06-20T01:17:23.077Z,14.63
2019-06-20T01:19:52.943Z,14.63
2019-06-20T01:22:24.473Z,14.63
2019-06-20T01:24:54.807Z,14.46
2019-06-20T01:27:24.610Z,14.46
2019-06-20T01:29:54.356Z,14.55
2019-06-20T01:32:24.217Z,14.54
2019-06-20T01:34:54.017Z,14.47
2019-06-20T01:37:23.775Z,14.52
2019-06-20T01:39:53.684Z,14.56
2019-06-20T01:42:24.054Z,14.56
2019-06-20T01:44:53.772Z,14.59
2019-06-20T01:47:23.592Z,14.58
2019-06-20T01:49:53.421Z,14.54
2019-06-20T01:52:23.177Z,14.56
2019-06-20T01:54:52.925Z,14.45
2019-06-20T01:57:22.656Z,14.44
2019-06-20T01:59:52.467Z,14.43
2019-06-20T02:02:25.580Z,14.30
2019-06-20T02:04:55.643Z,14.20
2019-06-20T02:07:28.264Z,14.16
2019-06-20T02:09:58.048Z,14.22
2019-06-20T02:12:27.927Z,14.22
2019-06-20T02:14:57.803Z,14.27
2019-06-20T02:17:27.611Z,14.30
2019-06-20T02:19:59.776Z,14.34
2019-06-20T02:22:31.888Z,14.33
2019-06-20T02:25:03.433Z,14.37
2019-06-20T02:27:33.246Z,14.39
2019-06-20T02:30:04.264Z,14.24
2019-06-20T02:32:34.653Z,14.26
2019-06-20T02:35:08.658Z,14.30
2019-06-20T02:37:40.461Z,14.28
2019-06-20T02:40:10.244Z,14.34
2019-06-20T02:42:40.047Z,14.25
2019-06-20T02:45:11.668Z,14.25
2019-06-20T02:47:41.499Z,14.14
2019-06-20T02:50:11.626Z,14.07
2019-06-20T02:52:41.451Z,13.98
2019-06-20T02:55:11.324Z,13.95
2019-06-20T02:57:41.208Z,14.04
2019-06-20T03:00:11.306Z,14.06
2019-06-20T03:02:41.092Z,13.96
2019-06-20T03:05:11.663Z,13.85
2019-06-20T03:07:41.472Z,13.92
2019-06-20T03:10:11.315Z,13.73
2019-06-20T03:12:41.190Z,13.68
2019-06-20T03:15:11.125Z,13.56
2019-06-20T03:17:40.915Z,13.48
2019-06-20T03:20:10.792Z,13.42
2019-06-20T03:22:40.604Z,13.38
2019-06-20T03:25:10.424Z,13.55
2019-06-20T03:27:40.167Z,13.71
2019-06-20T03:30:10.839Z,13.75
2019-06-20T03:32:40.613Z,13.78
2019-06-20T03:35:10.462Z,13.92
2019-06-20T03:37:40.289Z,14.04
2019-06-20T03:40:10.047Z,14.01
2019-06-20T03:42:39.841Z,13.94
2019-06-20T03:45:09.641Z,14.01
2019-06-20T03:47:39.469Z,14.08
2019-06-20T03:50:09.745Z,14.12
2019-06-20T03:52:39.437Z,14.16
2019-06-20T03:55:09.350Z,14.13
2019-06-20T03:57:39.236Z,14.20
2019-06-20T04:00:09.403Z,14.37
2019-06-20T04:02:40.786Z,14.68
2019-06-20T04:05:10.651Z,15.04
2019-06-20T04:07:40.369Z,15.48
2019-06-20T04:10:10.215Z,16.53
2019-06-20T04:12:39.958Z,17.09
2019-06-20T04:15:18.985Z,16.79
2019-06-20T04:17:41.261Z,16.37
2019-06-20T04:20:11.134Z,16.25
2019-06-20T04:22:40.978Z,16.18
2019-06-20T04:25:11.574Z,16.08
2019-06-20T04:27:41.350Z,16.07
2019-06-20T04:30:11.240Z,16.11
2019-06-20T04:32:41.016Z,16.23
2019-06-20T04:35:10.779Z,16.30
2019-06-20T04:37:40.656Z,16.30
2019-06-20T04:40:10.393Z,16.31
2019-06-20T04:42:40.192Z,16.11
2019-06-20T04:45:14.182Z,16.11
2019-06-20T04:47:43.920Z,16.24
2019-06-20T04:50:13.778Z,16.44
2019-06-20T04:52:43.540Z,16.54
2019-06-20T04:55:13.936Z,16.72
2019-06-20T04:57:43.793Z,16.84
2019-06-20T05:00:13.649Z,17.17
2019-06-20T05:02:43.460Z,17.34
2019-06-20T05:05:13.349Z,17.35
2019-06-20T05:07:43.273Z,17.39
2019-06-20T05:10:13.213Z,17.38
2019-06-20T05:12:42.979Z,17.45
2019-06-20T05:15:12.744Z,17.45
2019-06-20T05:17:42.531Z,17.53
2019-06-20T05:20:15.349Z,17.52
2019-06-20T05:22:45.031Z,17.52
2019-06-20T05:25:16.268Z,17.51
2019-06-20T05:27:46.150Z,17.49
2019-06-20T05:30:17.785Z,17.42
2019-06-20T05:32:48.504Z,17.50
2019-06-20T05:35:18.474Z,17.55
2019-06-20T05:37:48.573Z,17.59
2019-06-20T05:40:21.183Z,17.59
2019-06-20T05:42:51.379Z,17.70
2019-06-20T05:45:20.997Z,17.89
2019-06-20T05:47:52.613Z,18.03
2019-06-20T05:50:22.503Z,18.19
2019-06-20T05:52:52.939Z,18.39
2019-06-20T05:55:22.907Z,18.61
2019-06-20T05:57:52.704Z,18.79
2019-06-20T06:00:22.497Z,19.05
2019-06-20T06:02:52.259Z,19.29
2019-06-20T06:05:22.093Z,19.51
2019-06-20T06:07:51.880Z,19.85
2019-06-20T06:10:21.667Z,20.15
2019-06-20T06:12:51.695Z,20.61
2019-06-20T06:15:21.522Z,21.73
2019-06-20T06:17:51.347Z,23.66
2019-06-20T06:20:21.457Z,25.66
2019-06-20T06:22:51.705Z,28.03
2019-06-20T06:25:21.517Z,29.86
2019-06-20T06:27:51.713Z,31.88
2019-06-20T06:30:22.432Z,32.89
2019-06-20T06:32:54.364Z,32.55
2019-06-20T06:35:24.528Z,32.02
2019-06-20T06:37:54.429Z,31.51
2019-06-20T06:40:24.517Z,30.95
2019-06-20T06:42:54.305Z,30.53
2019-06-20T06:45:24.301Z,30.32
2019-06-20T06:47:54.082Z,29.76
2019-06-20T06:50:24.580Z,30.18
2019-06-20T06:52:54.394Z,30.67
2019-06-20T06:55:27.305Z,31.12
2019-06-20T06:57:55.675Z,30.92
2019-06-20T07:00:25.676Z,30.53
2019-06-20T07:02:55.418Z,30.38
2019-06-20T07:05:25.205Z,30.05
2019-06-20T07:07:55.061Z,30.08
2019-06-20T07:10:25.169Z,30.07
2019-06-20T07:12:54.992Z,30.06
2019-06-20T07:15:27.972Z,29.66
2019-06-20T07:18:00.578Z,29.06
2019-06-20T07:20:30.465Z,28.50
2019-06-20T07:23:00.297Z,29.03
2019-06-20T07:25:31.873Z,28.56
2019-06-20T07:28:01.811Z,28.61
2019-06-20T07:30:31.619Z,28.38
2019-06-20T07:33:01.595Z,28.38
2019-06-20T07:35:31.437Z,27.90
2019-06-20T07:38:01.402Z,28.22
2019-06-20T07:40:31.187Z,28.18
2019-06-20T07:43:01.377Z,28.23
2019-06-20T07:45:31.617Z,27.90
2019-06-20T07:48:01.384Z,27.94
2019-06-20T07:50:31.169Z,28.02
2019-06-20T07:53:02.742Z,28.11
2019-06-20T07:55:32.366Z,28.46
2019-06-20T07:58:02.242Z,28.71
2019-06-20T08:00:32.160Z,28.85
2019-06-20T08:03:02.082Z,28.72
2019-06-20T08:05:31.707Z,28.66
2019-06-20T08:08:01.512Z,29.06
2019-06-20T08:10:31.282Z,28.92
2019-06-20T08:13:01.155Z,28.77
2019-06-20T08:15:30.953Z,28.79
2019-06-20T08:18:07.046Z,28.70
2019-06-20T08:20:37.444Z,29.04
2019-06-20T08:23:11.094Z,29.12
2019-06-20T08:25:40.973Z,28.94
2019-06-20T08:28:10.784Z,29.21
2019-06-20T08:30:40.635Z,29.34
2019-06-20T08:33:12.266Z,29.25
2019-06-20T08:35:41.877Z,29.29
2019-06-20T08:38:18.151Z,29.41
2019-06-20T08:40:47.989Z,29.28
2019-06-20T08:43:17.997Z,29.12
2019-06-20T08:45:49.125Z,29.17
2019-06-20T08:48:21.256Z,29.23
2019-06-20T08:50:54.368Z,29.17
2019-06-20T08:53:25.713Z,29.38
2019-06-20T08:55:57.742Z,29.56
2019-06-20T08:58:28.983Z,29.31
2019-06-20T09:01:01.300Z,29.37
2019-06-20T09:03:32.949Z,29.35
2019-06-20T09:08:32.663Z,29.54
2019-06-20T09:11:04.031Z,29.76
2019-06-20T09:13:34.035Z,29.83
2019-06-20T09:16:04.032Z,29.84
2019-06-20T09:18:37.199Z,29.85
2019-06-20T09:21:07.154Z,29.48
2019-06-20T09:23:38.524Z,29.55
2019-06-20T09:26:11.935Z,29.89
2019-06-20T09:28:41.823Z,29.79
2019-06-20T09:31:11.628Z,29.99
2019-06-20T09:33:41.560Z,29.84
2019-06-20T09:36:11.350Z,29.73
2019-06-20T09:38:41.186Z,29.47
2019-06-20T09:41:10.964Z,29.59
2019-06-20T09:43:40.780Z,29.73
2019-06-20T09:46:10.596Z,29.65
2019-06-20T09:48:40.393Z,29.60
2019-06-20T09:51:10.284Z,29.92
2019-06-20T09:53:40.078Z,30.32
2019-06-20T09:56:09.913Z,30.39
2019-06-20T09:58:39.796Z,30.42
2019-06-20T10:01:09.697Z,30.60
2019-06-20T10:03:39.473Z,30.66
2019-06-20T10:06:14.103Z,30.82
2019-06-20T10:11:09.612Z,30.96
2019-06-20T10:13:39.482Z,31.06
2019-06-20T10:16:09.298Z,31.06
2019-06-20T10:18:39.191Z,30.96
2019-06-20T10:21:09.125Z,30.77
2019-06-20T10:23:41.338Z,30.62
2019-06-20T10:26:11.247Z,30.61
2019-06-20T10:28:41.044Z,30.13
2019-06-20T10:31:10.912Z,29.62
2019-06-20T10:33:40.692Z,29.34
2019-06-20T10:36:10.508Z,29.14
2019-06-20T10:38:40.560Z,29.08
2019-06-20T10:41:10.528Z,28.76
2019-06-20T10:43:40.396Z,28.65
2019-06-20T10:46:10.217Z,28.53
2019-06-20T10:48:39.933Z,28.55
2019-06-20T10:51:27.684Z,28.63
2019-06-20T10:53:57.999Z,28.98
2019-06-20T10:56:28.956Z,29.47
2019-06-20T10:58:59.625Z,29.91
2019-06-20T11:01:29.429Z,30.01
2019-06-20T11:03:59.197Z,30.32
2019-06-20T11:06:29.081Z,30.65
2019-06-20T11:08:58.935Z,30.95
2019-06-20T11:11:30.370Z,30.87
2019-06-20T11:14:00.166Z,30.73
2019-06-20T11:16:29.960Z,30.71
2019-06-20T11:19:00.229Z,30.46
2019-06-20T11:21:30.068Z,30.40
2019-06-20T11:24:02.219Z,30.39
2019-06-20T11:26:32.118Z,30.41
2019-06-20T11:29:01.905Z,30.68
2019-06-20T11:31:31.714Z,30.98
2019-06-20T11:34:02.588Z,31.23
2019-06-20T11:36:32.472Z,31.33
2019-06-20T11:39:02.247Z,31.07
2019-06-20T11:41:31.994Z,30.95
2019-06-20T11:44:01.851Z,30.68
2019-06-20T11:46:31.699Z,30.73
2019-06-20T11:49:04.434Z,30.67
2019-06-20T11:51:35.731Z,30.54
2019-06-20T11:54:05.984Z,30.30
2019-06-20T11:56:35.902Z,30.31
2019-06-20T11:59:06.501Z,30.68
2019-06-20T12:01:36.358Z,30.75
2019-06-20T12:04:09.228Z,30.63
2019-06-20T12:06:38.441Z,30.23
2019-06-20T12:09:09.232Z,29.89
2019-06-20T12:11:39.622Z,29.79
2019-06-20T12:14:10.543Z,29.64
2019-06-20T12:16:40.884Z,29.31
2019-06-20T12:19:11.325Z,29.15
2019-06-20T12:21:42.397Z,29.17
2019-06-20T12:24:12.347Z,29.11
2019-06-20T12:26:42.482Z,29.04
2019-06-20T12:29:12.298Z,29.13
2019-06-20T12:31:43.085Z,29.28
2019-06-20T12:34:13.622Z,29.49
2019-06-20T12:36:44.417Z,29.59
2019-06-20T12:39:17.721Z,29.68
2019-06-20T12:41:48.274Z,29.82
2019-06-20T12:44:18.090Z,29.92
2019-06-20T12:46:49.044Z,29.86
2019-06-20T12:49:23.723Z,29.82
2019-06-20T12:51:51.984Z,29.72
2019-06-20T12:54:21.854Z,29.56
2019-06-20T12:56:51.601Z,29.50
2019-06-20T12:59:21.362Z,29.40
2019-06-20T13:01:51.256Z,29.32
2019-06-20T13:04:21.106Z,29.29
2019-06-20T13:06:51.618Z,29.29
2019-06-20T13:09:21.372Z,29.32
2019-06-20T13:11:51.221Z,29.18
2019-06-20T13:14:20.980Z,29.14
2019-06-20T13:16:50.826Z,29.07
2019-06-20T13:19:20.658Z,28.94
2019-06-20T13:21:50.427Z,28.67
2019-06-20T13:24:20.216Z,28.67
2019-06-20T13:26:50.724Z,28.63
2019-06-20T13:29:20.834Z,28.67
2019-06-20T13:32:02.158Z,28.71
2019-06-20T13:34:23.134Z,28.73
2019-06-20T13:36:53.098Z,28.74
2019-06-20T13:39:23.592Z,28.74
2019-06-20T13:41:53.465Z,28.71
2019-06-20T13:44:23.935Z,28.64
2019-06-20T13:46:53.912Z,28.66
2019-06-20T13:49:23.708Z,28.43
2019-06-20T13:51:53.623Z,28.42
2019-06-20T13:54:23.444Z,28.36
2019-06-20T13:56:54.008Z,28.27
2019-06-20T13:59:23.960Z,28.36
2019-06-20T14:02:05.833Z,28.27
2019-06-20T14:04:25.338Z,27.88
2019-06-20T14:06:55.114Z,27.14
2019-06-20T14:09:24.965Z,26.98
2019-06-20T14:11:55.637Z,26.61
2019-06-20T14:14:27.929Z,26.21
2019-06-20T14:16:58.402Z,25.70
2019-06-20T14:19:30.618Z,25.15
2019-06-20T14:22:00.617Z,24.69
2019-06-20T14:24:32.070Z,22.64
2019-06-20T14:27:02.378Z,21.19
2019-06-20T14:29:32.197Z,20.75
2019-06-20T14:32:02.011Z,20.96
2019-06-20T14:34:31.899Z,21.10
2019-06-20T14:37:01.676Z,21.14
2019-06-20T14:39:34.148Z,21.19
2019-06-20T14:42:02.996Z,21.60
2019-06-20T14:44:32.911Z,21.75
2019-06-20T14:47:02.683Z,21.88
2019-06-20T14:49:32.622Z,22.03
2019-06-20T14:52:02.394Z,22.24
2019-06-20T14:54:32.216Z,22.42
2019-06-20T14:57:02.017Z,22.63
2019-06-20T14:59:31.827Z,22.84
2019-06-20T15:02:01.623Z,22.98
2019-06-20T15:04:31.437Z,23.00
2019-06-20T15:07:01.217Z,22.86
2019-06-20T15:09:31.021Z,22.89
2019-06-20T15:12:00.833Z,23.00
2019-06-20T15:14:32.817Z,23.03
2019-06-20T15:17:02.617Z,23.14
2019-06-20T15:19:32.517Z,23.18
2019-06-20T15:22:02.338Z,23.06
2019-06-20T15:24:32.064Z,22.81
2019-06-20T15:27:01.977Z,22.67
2019-06-20T15:29:32.589Z,22.30
2019-06-20T15:32:02.377Z,22.24
2019-06-20T15:34:32.241Z,22.15
2019-06-20T15:37:01.893Z,21.98
2019-06-20T15:39:31.725Z,21.88
2019-06-20T15:42:01.606Z,21.89
2019-06-20T15:44:31.550Z,21.93
2019-06-20T15:47:01.312Z,21.87
2019-06-20T15:49:32.293Z,21.90
2019-06-20T15:52:02.110Z,21.94
2019-06-20T15:54:32.032Z,21.93
2019-06-20T15:57:01.908Z,21.95
2019-06-20T15:59:31.679Z,22.04
2019-06-20T16:02:01.479Z,21.84
2019-06-20T16:04:31.337Z,21.83
2019-06-20T16:07:02.696Z,21.82
2019-06-20T16:09:32.500Z,21.96
2019-06-20T16:12:02.496Z,21.78
2019-06-20T16:14:34.841Z,21.80
2019-06-20T16:17:05.622Z,21.88
2019-06-20T16:19:35.699Z,21.93
2019-06-20T16:22:05.658Z,22.06
2019-06-20T16:24:35.522Z,22.22
2019-06-20T16:27:05.283Z,22.32
2019-06-20T16:29:34.979Z,22.40
2019-06-20T16:32:04.829Z,22.51
2019-06-20T16:34:34.634Z,22.52
2019-06-20T16:37:09.961Z,22.58
2019-06-20T16:39:37.347Z,22.63
2019-06-20T16:42:09.200Z,22.57
2019-06-20T16:44:39.004Z,22.57
2019-06-20T16:47:08.875Z,22.64
2019-06-20T16:49:38.672Z,22.67
2019-06-20T16:52:08.495Z,22.66
2019-06-20T16:54:38.325Z,22.72
2019-06-20T16:57:08.100Z,22.79
2019-06-20T16:59:37.896Z,22.82
2019-06-20T17:02:08.111Z,22.85
2019-06-20T17:04:37.891Z,22.80
2019-06-20T17:07:07.694Z,22.79
2019-06-20T17:09:37.506Z,22.74
2019-06-20T17:12:10.926Z,22.78
2019-06-20T17:14:38.914Z,22.74
2019-06-20T17:17:08.700Z,22.71
2019-06-20T17:19:42.100Z,22.70
2019-06-20T17:22:09.979Z,22.56
2019-06-20T17:24:39.820Z,22.54
2019-06-20T17:27:09.584Z,22.54
2019-06-20T17:29:39.371Z,22.50
2019-06-20T17:32:09.148Z,22.49
2019-06-20T17:34:39.312Z,22.50
2019-06-20T17:37:09.137Z,22.51
2019-06-20T17:39:38.881Z,22.55
2019-06-20T17:42:08.713Z,22.58
2019-06-20T17:44:38.540Z,22.60
2019-06-20T17:47:08.408Z,22.63
2019-06-20T17:49:38.235Z,22.62
2019-06-20T17:52:08.053Z,22.64
2019-06-20T17:54:37.885Z,22.68
2019-06-20T17:57:07.688Z,22.70
2019-06-20T17:59:37.565Z,22.73
2019-06-20T18:02:07.510Z,22.71
2019-06-20T18:04:38.801Z,22.70
2019-06-20T18:07:08.624Z,22.68
2019-06-20T18:09:38.410Z,22.65
2019-06-20T18:12:08.268Z,22.66
2019-06-20T18:14:38.089Z,22.59
2019-06-20T18:17:07.922Z,22.48
2019-06-20T18:19:37.859Z,22.39
2019-06-20T18:22:08.780Z,22.44
2019-06-20T18:24:39.172Z,22.33
2019-06-20T18:27:09.117Z,22.20
2019-06-20T18:29:38.978Z,22.10
2019-06-20T18:32:08.801Z,22.02
2019-06-20T18:34:38.515Z,21.91
2019-06-20T18:37:08.337Z,21.79
2019-06-20T18:39:39.118Z,21.75
2019-06-20T18:42:08.999Z,21.66
2019-06-20T18:44:38.797Z,21.56
2019-06-20T18:47:09.580Z,21.53
2019-06-20T18:49:41.964Z,21.50
2019-06-20T18:52:11.810Z,21.44
2019-06-20T18:54:41.648Z,21.40
2019-06-20T18:57:11.704Z,21.26
2019-06-20T18:59:41.820Z,21.21
2019-06-20T19:02:11.753Z,21.11
2019-06-20T19:04:47.803Z,21.08
2019-06-20T19:07:13.268Z,21.08
2019-06-20T19:09:43.176Z,21.01
2019-06-20T19:12:13.229Z,20.98
2019-06-20T19:14:43.523Z,20.95
2019-06-20T19:17:14.844Z,20.92
2019-06-20T19:19:46.788Z,20.89
2019-06-20T19:22:16.829Z,20.89
2019-06-20T19:24:46.870Z,20.89
2019-06-20T19:27:16.637Z,20.86
2019-06-20T19:29:49.602Z,20.83
2019-06-20T19:32:20.089Z,20.81
2019-06-20T19:35:01.289Z,20.79
2019-06-20T19:37:21.637Z,20.76
2019-06-20T19:39:52.140Z,20.78
2019-06-20T19:42:24.139Z,20.80
2019-06-20T19:44:53.827Z,20.84
2019-06-20T19:47:26.442Z,20.85
2019-06-20T19:49:57.432Z,20.90
2019-06-20T19:52:29.763Z,20.90
2019-06-20T19:55:02.911Z,20.90
2019-06-20T19:57:32.819Z,20.88
2019-06-20T20:00:02.706Z,20.85
2019-06-20T20:02:33.024Z,20.73
2019-06-20T20:05:17.757Z,20.73
2019-06-20T20:07:34.545Z,20.76
2019-06-20T20:10:09.152Z,20.79
2019-06-20T20:12:39.060Z,20.78
2019-06-20T20:15:09.644Z,20.77
2019-06-20T20:17:43.644Z,20.75
2019-06-20T20:20:14.028Z,20.75
2019-06-20T20:22:43.949Z,20.81
2019-06-20T20:25:13.868Z,20.81
2019-06-20T20:27:43.695Z,20.82
2019-06-20T20:30:13.943Z,20.80
2019-06-20T20:32:43.804Z,20.78
2019-06-20T20:35:13.889Z,20.73
2019-06-20T20:37:43.815Z,20.66
2019-06-20T20:40:15.968Z,20.64
2019-06-20T20:42:45.797Z,20.61
2019-06-20T20:45:15.906Z,20.64
2019-06-20T20:47:45.733Z,20.63
2019-06-20T20:50:15.667Z,20.62
2019-06-20T20:52:45.675Z,20.63
2019-06-20T20:55:16.298Z,20.58
2019-06-20T20:57:46.605Z,20.57
2019-06-20T21:00:48.541Z,20.66
2019-06-20T21:03:19.195Z,20.77
2019-06-20T21:05:51.734Z,20.43
2019-06-20T21:08:23.133Z,20.36
2019-06-20T21:10:52.956Z,20.28
2019-06-20T21:13:22.938Z,20.20
2019-06-20T21:15:52.736Z,20.17
2019-06-20T21:18:22.604Z,20.16
2019-06-20T21:20:52.429Z,20.09
2019-06-20T21:23:22.341Z,20.11
2019-06-20T21:25:52.155Z,20.22
2019-06-20T21:28:21.959Z,20.26
2019-06-20T21:30:51.958Z,20.26
2019-06-20T21:33:21.772Z,20.39
2019-06-20T21:36:07.006Z,20.34
2019-06-20T21:38:23.041Z,20.38
2019-06-20T21:40:52.803Z,20.33
2019-06-20T21:43:22.954Z,20.33
2019-06-20T21:45:55.944Z,20.42
2019-06-20T21:48:25.689Z,20.48
2019-06-20T21:50:55.497Z,20.50
2019-06-20T21:53:25.583Z,20.50
2019-06-20T21:55:55.344Z,20.59
2019-06-20T21:58:25.263Z,20.60
2019-06-20T22:00:57.176Z,20.55
2019-06-20T22:03:27.010Z,20.50
2019-06-20T22:05:56.759Z,20.50
2019-06-20T22:08:26.544Z,20.51
2019-06-20T22:10:56.586Z,20.61
2019-06-20T22:13:27.125Z,20.75
2019-06-20T22:15:57.102Z,20.57
2019-06-20T22:18:26.935Z,20.50
2019-06-20T22:20:56.681Z,20.63
2019-06-20T22:23:26.466Z,20.62
2019-06-20T22:25:58.569Z,20.52
2019-06-20T22:28:29.678Z,20.30
2019-06-20T22:30:59.940Z,20.18
2019-06-20T22:33:29.980Z,20.15
2019-06-20T22:36:00.505Z,20.14
2019-06-20T22:38:30.287Z,20.03
2019-06-20T22:41:00.014Z,20.00
2019-06-20T22:43:32.243Z,20.10
2019-06-20T22:46:02.377Z,19.86
2019-06-20T22:48:32.988Z,19.85
2019-06-20T22:51:02.826Z,19.82
2019-06-20T22:53:33.316Z,19.80
2019-06-20T22:56:03.148Z,19.75
2019-06-20T22:58:32.928Z,19.73
2019-06-20T23:01:02.721Z,19.73
2019-06-20T23:03:32.441Z,19.74
2019-06-20T23:06:02.944Z,19.66
2019-06-20T23:08:32.694Z,19.54
2019-06-20T23:11:02.505Z,19.59
2019-06-20T23:13:32.292Z,19.40
2019-06-20T23:16:02.199Z,19.40
2019-06-20T23:18:32.037Z,19.23
2019-06-20T23:21:05.239Z,19.08
2019-06-20T23:23:35.982Z,18.86
2019-06-20T23:26:07.367Z,18.77
2019-06-20T23:28:37.160Z,18.79
2019-06-20T23:31:06.980Z,18.68
2019-06-20T23:33:36.777Z,18.67
2019-06-20T23:36:07.412Z,18.50
2019-06-20T23:38:37.065Z,18.56
2019-06-20T23:41:09.492Z,18.42
2019-06-20T23:43:39.204Z,18.44
2019-06-20T23:46:09.120Z,18.25
2019-06-20T23:48:38.830Z,17.81
2019-06-20T23:51:24.687Z,17.51
2019-06-20T23:53:46.638Z,17.50
2019-06-20T23:56:17.171Z,17.39
2019-06-20T23:58:47.082Z,17.08
